Düsseldorf, Alemania

11:08 AM CEST en Septiembre 02, 2014 (GMT +0200)
INRWDUES3 | Change Station
CLOSE
Current Station
Estación meteorológica personal
Location: Duesseldorf-Rath, Nordrhein-Westfalen
Altura: 141 ft
Estaciones meteorológicas cercanas

Alt 141 ft 51.26 °N, 6.82 °E | Updated 50 seconds ago

Clear
Despejado
62.2 ° F
Sensación térmica 62.2 ° F
N
4.5
Viento Variable Viento desde ONO
Gusts 4.5 mph

Hoy
Alta -- | Baja -- ° F
--% Posibilidad de precipitaciones
Ayer
Alta -- | Baja -- ° F
Precip. -- pul
6:47 AM 8:17 PM
Creciente, 49% visible
Presión 30.18 pul
Visibilidad -9999.0 Millas
Nubes
Punto de rocío 58 ° F
Humedad 85%
Precipitaciones 0.00 pul
Espesor de la nieve No disponible.
UV No disponible.
Polen No disponible.
Calidad del aire No disponible.
Flu Activity No disponible.
METAR EDDL 020850Z 33004KT CAVOK 18/13 Q1022 NOSIG

More Conditions Fewer Conditions

Presión 30.18 pul
Visibilidad -9999.0 Millas
Nubes
Punto de rocío 58 ° F
Humedad 85%
Precipitaciones 0.00 pul
Espesor de la nieve No disponible.
UV No disponible.
Polen No disponible.
Calidad del aire No disponible.
Flu Activity No disponible.
METAR EDDL 020850Z 33004KT CAVOK 18/13 Q1022 NOSIG

More Conditions Fewer Conditions

10-Day Weather Forecast

Almanac

Astronomía

Sep. 02, 2014 Salida Puesta
Hora real 6:47 AM CEST 8:17 PM CEST
Crepúsculo civil 6:12 AM CEST 8:51 PM CEST
Crepúsculo náutico 5:30 AM CEST 9:33 PM CEST
Crepúsculo astronómico 4:43 AM CEST 10:19 PM CEST
Luna 3:04 PM CEST Sin puesta de luna
Horas de luz 14h 39m
Horas de luz
13h 29m
Tomorrow will be 3m 47s shorter.
Creciente, 49% of the Moon is Illuminated
Hoy
Creciente
Sep 2
Cuarto creciente
Sep 8
Luna llena
Sep 15
Cuarto menguante
Sep 24
Nueva

Extremos de ayer

Máximos del país Bajas del país

Community

WunderPhotos

Upload Photos

1,749,587 ¡fotos cargadas!

WunderBlogs® & News

Nearby

Calidad del aire

Not available.

Grosos de nieve

Not available.

Actividad de terremotos

Ciudad Distance Mag. Tiempo y dato
No hay informes recientes de la actividad sísmica.
Magnitud mínima muestra es 2,5.

Temperaturas de aguas costeras

Lugar Temperatura
Sin partes meteorológicos de las estaciones

Estaciones meteorológicas cercanas